Monday, July 23, 2018, 2:07 AM EDT
Back to Local

KJHW, Jamestown, Chautauqua County/jamestown Airport

Location: Jamestown, NY, United States Lat: 42.15
Local Time: 2:07 AM EDT ( 6:07 GMT) Lon: -79.267
Time Zone: US/Eastern Elev: 1722 ft

Show me the last for .
Show Decoded

2018-07-23 00:56 METAR KJHW 230456Z AUTO 14005KT 10SM FEW120 19/18 A2993 RMK AO2 SLP133 T01940178
                 402280139 =
2018-07-22 23:56 METAR KJHW 230356Z AUTO 15004KT 10SM FEW014 SCT060 19/17 A2993 RMK AO2 SLP134
                 T01940172 =
2018-07-22 22:56 METAR KJHW 230256Z AUTO 12006KT 7SM FEW021 19/17 A2993 RMK AO2 SLP131 T01940172
                 51009 =
2018-07-22 22:26 METAR KJHW 230226Z AUTO 12005KT 10SM SCT021 20/17 A2992 RMK AO2 =
2018-07-22 22:18 METAR KJHW 230218Z AUTO 13005KT 10SM BKN021 BKN050 20/17 A2992 RMK AO2 =
2018-07-22 21:56 METAR KJHW 230156Z AUTO 13006KT 10SM SCT050 21/17 A2992 RMK AO2 SLP130 T02060172
                 =
2018-07-22 20:56 METAR KJHW 230056Z AUTO 13007KT 10SM SCT027 21/17 A2990 RMK AO2 SLP124 T02060172
                 =
2018-07-22 19:56 METAR KJHW 222356Z AUTO 12005KT 10SM FEW026 21/17 A2990 RMK AO2 SLP123 60003
                 T02110172 10228 20189 51015 =
2018-07-22 18:56 METAR KJHW 222256Z AUTO 15006G14KT 10SM SCT039 21/17 A2989 RMK AO2 SLP119
                 T02110167 =
2018-07-22 18:11 METAR KJHW 222211Z AUTO 14006KT 10SM SCT030 BKN036 BKN045 22/17 A2987 RMK AO2 =
2018-07-22 17:56 METAR KJHW 222156Z AUTO 15007KT 130V190 10SM OVC027 22/17 A2987 RMK AO2 SLP114
                 T02170172 =
2018-07-22 16:56 METAR KJHW 222056Z AUTO 17009KT 10SM BKN024 BKN029 22/17 A2985 RMK AO2 SLP106
                 60003 T02220172 51007 =
2018-07-22 16:40 METAR KJHW 222040Z AUTO 19010KT 10SM FEW027 22/17 A2985 RMK AO2 =
2018-07-22 15:56 METAR KJHW 221956Z AUTO 17007KT 10SM OVC019 21/17 A2984 RMK AO2 SLP104 T02060167
                 =
2018-07-22 15:03 METAR KJHW 221903Z AUTO 17014G18KT 10SM OVC016 19/16 A2983 RMK AO2 =
2018-07-22 14:56 METAR KJHW 221856Z AUTO 18015G18KT 10SM OVC014 19/16 A2983 RMK AO2 SLP100 P0003
                 T01940161 =
2018-07-22 14:47 METAR KJHW 221847Z AUTO 19009KT 9SM OVC014 19/17 A2983 RMK AO2 P0002 =
2018-07-22 14:35 METAR KJHW 221835Z AUTO 19010G18KT 10SM OVC016 19/17 A2983 RMK AO2 P0002 =
2018-07-22 13:56 METAR KJHW 221756Z AUTO 21012KT 10SM OVC011 19/16 A2982 RMK AO2 SLP095 P0004
                 60035 T01890161 10189 20144 51009 =
2018-07-22 12:56 METAR KJHW 221656Z AUTO 20011KT 10SM OVC011 18/16 A2980 RMK AO2 SLP091 P0005
                 T01780156 =
2018-07-22 12:24 METAR KJHW 221624Z AUTO 17008KT 10SM OVC009 17/16 A2979 RMK AO2 CIG 008V014
                 P0003 =
2018-07-22 11:56 METAR KJHW 221556Z AUTO 18009KT 10SM OVC013 17/16 A2979 RMK AO2 SLP086 P0004
                 T01720156 =
2018-07-22 10:56 METAR KJHW 221456Z AUTO 18009KT 10SM BKN008 OVC013 17/16 A2976 RMK AO2 CIG
                 007V012 SLP078 P0005 60022 T01670156 55000 =
2018-07-22 10:24 METAR KJHW 221424Z AUTO 19009KT 6SM BR BKN008 OVC012 17/15 A2975 RMK AO2 CIG
                 006V011 P0002 =
2018-07-22 10:20 METAR KJHW 221420Z AUTO 19008KT 1 1/2SM BR OVC010 16/15 A2975 RMK AO2 VIS M1/4V5
                 CIG 006V013 P0002 =
2018-07-22 09:56 METAR KJHW 221356Z AUTO 16005KT 10SM SCT004 BKN008 OVC025 16/15 A2975 RMK AO2
                 RAE41 CIG 006V010 SLP073 P0008 T01610150 =
2018-07-22 08:56 METAR KJHW 221256Z AUTO 00000KT 10SM -RA BKN006 OVC015 16/14 A2976 RMK AO2 CIG
                 005V009 SLP075 P0009 T01560144 =
2018-07-22 08:12 METAR KJHW 221212Z AUTO 32004KT 5SM -RA BR FEW008 BKN025 OVC039 15/14 A2975 RMK
                 AO2 P0003 =
2018-07-22 08:03 METAR KJHW 221203Z AUTO 31004KT 2 1/2SM -RA BR SCT008 OVC025 14/14 A2976 RMK AO2
                 P0001 =
2018-07-22 07:56 METAR KJHW 221156Z AUTO 00000KT 2SM RA BR BKN008 OVC025 14/14 A2976 RMK AO2 CIG
                 006V011 SLP077 P0012 60063 70072 T01440139 10150 20139 50001 =
2018-07-22 07:54 METAR KJHW 221154Z AUTO 32003KT 2 1/2SM -RA BR BKN008 OVC025 14/14 A2977 RMK AO2
                 CIG 006V011 P0011 =
2018-07-22 07:47 METAR KJHW 221147Z AUTO 33003KT 3SM -RA BR OVC008 14/14 A2977 RMK AO2 CIG
                 006V011 P0010 =
2018-07-22 07:18 METAR KJHW 221118Z AUTO 31003KT 2SM RA BR OVC006 14/14 A2977 RMK AO2 CIG 003V010
                 P0005 =
2018-07-22 06:56 METAR KJHW 221056Z AUTO 31003KT 7SM RA OVC006 14/14 A2977 RMK AO2 CIG 003V010
                 SLP078 P0013 T01390139 =
2018-07-22 05:56 METAR KJHW 220956Z AUTO 01005KT 6SM +RA BR OVC008 14/13 A2976 RMK AO2 CIG
                 003V010 SLP076 P0012 T01390133 =
2018-07-22 05:10 METAR KJHW 220910Z AUTO 03007KT 10SM RA OVC006 14/14 A2978 RMK AO2 CIG 003V011
                 P0003 =
2018-07-22 04:56 METAR KJHW 220856Z AUTO 04006KT 8SM RA OVC004 14/13 A2978 RMK AO2 CIG 002V007
                 SLP081 P0010 60026 T01390133 58024 =
2018-07-22 04:36 METAR KJHW 220836Z AUTO 05006KT 7SM RA BKN004 BKN013 OVC025 14/14 A2979 RMK AO2
                 CIG 002V010 P0006 =
2018-07-22 04:26 METAR KJHW 220826Z AUTO 04007KT 9SM RA SCT004 BKN013 OVC026 14/13 A2979 RMK AO2
                 P0004 =
2018-07-22 03:56 METAR KJHW 220756Z AUTO 06006KT 6SM RA BR SCT005 BKN027 OVC055 14/14 A2981 RMK
                 AO2 SLP091 P0009 T01390139 =
2018-07-22 03:38 METAR KJHW 220738Z AUTO 08007KT 7SM RA SCT003 BKN029 OVC045 14/13 A2981 RMK AO2
                 P0005 =
2018-07-22 03:12 METAR KJHW 220712Z AUTO 10011KT 7SM -RA BKN003 BKN007 OVC034 14/14 A2982 RMK AO2
                 P0002 =
2018-07-22 03:01 METAR KJHW 220701Z AUTO 10008KT 5SM RA BR SCT003 BKN009 OVC034 15/14 A2983 RMK
                 AO2 CIG 006V012 P0001 =
2018-07-22 02:56 METAR KJHW 220656Z AUTO 09009KT 4SM -RA BR FEW007 SCT011 OVC034 15/14 A2983 RMK
                 AO2 SLP097 P0007 T01500144 =
2018-07-22 02:47 METAR KJHW 220647Z AUTO 09008KT 5SM RA BR FEW007 SCT010 OVC036 15/14 A2983 RMK
                 AO2 P0006 =

Support USWX by starting your Amazon purchase here.